sensor_id;sensor_type;location;lat;lon;timestamp;P1;durP1;ratioP1;P2;durP2;ratioP2
78183;SDS011;67442;44.570;18.610;2024-03-25T00:01:15;247.25;;;88.97;;
78183;SDS011;67442;44.570;18.610;2024-03-25T00:03:42;225.35;;;74.25;;
78183;SDS011;67442;44.570;18.610;2024-03-25T00:06:10;186.00;;;65.18;;
78183;SDS011;67442;44.570;18.610;2024-03-25T00:08:37;168.60;;;59.63;;
78183;SDS011;67442;44.570;18.610;2024-03-25T00:11:04;187.48;;;66.60;;
78183;SDS011;67442;44.570;18.610;2024-03-25T00:13:31;159.35;;;53.30;;
78183;SDS011;67442;44.570;18.610;2024-03-25T00:15:59;111.90;;;42.58;;
78183;SDS011;67442;44.570;18.610;2024-03-25T00:18:26;108.15;;;41.22;;
78183;SDS011;67442;44.570;18.610;2024-03-25T00:20:54;109.32;;;41.05;;
78183;SDS011;67442;44.570;18.610;2024-03-25T00:23:21;127.85;;;48.33;;
78183;SDS011;67442;44.570;18.610;2024-03-25T00:25:48;139.52;;;52.60;;
78183;SDS011;67442;44.570;18.610;2024-03-25T00:28:16;174.02;;;61.92;;
78183;SDS011;67442;44.570;18.610;2024-03-25T00:30:44;175.82;;;61.40;;
78183;SDS011;67442;44.570;18.610;2024-03-25T00:33:11;168.82;;;57.45;;
78183;SDS011;67442;44.570;18.610;2024-03-25T00:35:39;154.63;;;54.38;;
78183;SDS011;67442;44.570;18.610;2024-03-25T00:38:06;219.15;;;68.53;;
78183;SDS011;67442;44.570;18.610;2024-03-25T00:40:34;185.40;;;58.65;;
78183;SDS011;67442;44.570;18.610;2024-03-25T00:43:02;152.07;;;54.22;;
78183;SDS011;67442;44.570;18.610;2024-03-25T00:45:29;234.60;;;67.07;;
78183;SDS011;67442;44.570;18.610;2024-03-25T00:47:56;164.82;;;58.70;;
78183;SDS011;67442;44.570;18.610;2024-03-25T00:50:24;149.15;;;58.38;;
78183;SDS011;67442;44.570;18.610;2024-03-25T00:52:52;265.55;;;85.90;;
78183;SDS011;67442;44.570;18.610;2024-03-25T00:55:19;266.50;;;85.38;;
78183;SDS011;67442;44.570;18.610;2024-03-25T00:57:47;237.45;;;70.10;;
78183;SDS011;67442;44.570;18.610;2024-03-25T01:00:14;178.40;;;59.80;;
78183;SDS011;67442;44.570;18.610;2024-03-25T01:02:43;179.48;;;63.50;;
78183;SDS011;67442;44.570;18.610;2024-03-25T01:05:10;158.43;;;61.15;;
78183;SDS011;67442;44.570;18.610;2024-03-25T01:07:37;173.32;;;61.80;;
78183;SDS011;67442;44.570;18.610;2024-03-25T01:10:05;189.90;;;64.15;;
78183;SDS011;67442;44.570;18.610;2024-03-25T01:12:33;218.00;;;67.63;;
78183;SDS011;67442;44.570;18.610;2024-03-25T01:15:00;267.75;;;79.20;;
78183;SDS011;67442;44.570;18.610;2024-03-25T01:17:29;204.68;;;67.65;;
78183;SDS011;67442;44.570;18.610;2024-03-25T01:19:56;208.75;;;68.47;;
78183;SDS011;67442;44.570;18.610;2024-03-25T01:22:24;225.38;;;75.78;;
78183;SDS011;67442;44.570;18.610;2024-03-25T01:24:51;224.90;;;71.68;;
78183;SDS011;67442;44.570;18.610;2024-03-25T01:27:19;193.25;;;61.40;;
78183;SDS011;67442;44.570;18.610;2024-03-25T01:29:46;159.48;;;52.75;;
78183;SDS011;67442;44.570;18.610;2024-03-25T01:32:14;171.85;;;55.80;;
78183;SDS011;67442;44.570;18.610;2024-03-25T01:34:41;161.68;;;54.33;;
78183;SDS011;67442;44.570;18.610;2024-03-25T01:37:08;162.65;;;51.53;;
78183;SDS011;67442;44.570;18.610;2024-03-25T01:39:36;169.95;;;54.03;;
78183;SDS011;67442;44.570;18.610;2024-03-25T01:42:04;181.85;;;55.20;;
78183;SDS011;67442;44.570;18.610;2024-03-25T01:44:31;203.68;;;59.33;;
78183;SDS011;67442;44.570;18.610;2024-03-25T01:46:59;186.43;;;56.88;;
78183;SDS011;67442;44.570;18.610;2024-03-25T01:49:26;241.82;;;70.28;;
78183;SDS011;67442;44.570;18.610;2024-03-25T01:51:54;177.13;;;53.00;;
78183;SDS011;67442;44.570;18.610;2024-03-25T01:54:23;174.20;;;54.88;;
78183;SDS011;67442;44.570;18.610;2024-03-25T01:56:49;117.82;;;35.45;;
78183;SDS011;67442;44.570;18.610;2024-03-25T01:59:18;112.82;;;37.25;;
78183;SDS011;67442;44.570;18.610;2024-03-25T02:01:46;99.30;;;30.45;;
78183;SDS011;67442;44.570;18.610;2024-03-25T02:04:13;89.25;;;28.08;;
78183;SDS011;67442;44.570;18.610;2024-03-25T02:06:40;100.57;;;32.88;;
78183;SDS011;67442;44.570;18.610;2024-03-25T02:09:08;101.45;;;32.65;;
78183;SDS011;67442;44.570;18.610;2024-03-25T02:11:35;158.00;;;47.03;;
78183;SDS011;67442;44.570;18.610;2024-03-25T02:14:03;97.45;;;32.58;;
78183;SDS011;67442;44.570;18.610;2024-03-25T02:16:30;94.80;;;28.48;;
78183;SDS011;67442;44.570;18.610;2024-03-25T02:18:57;138.55;;;41.47;;
78183;SDS011;67442;44.570;18.610;2024-03-25T02:21:25;123.10;;;35.80;;
78183;SDS011;67442;44.570;18.610;2024-03-25T02:23:53;108.72;;;32.97;;
78183;SDS011;67442;44.570;18.610;2024-03-25T02:26:23;178.07;;;47.55;;
78183;SDS011;67442;44.570;18.610;2024-03-25T02:28:51;126.85;;;33.13;;
78183;SDS011;67442;44.570;18.610;2024-03-25T02:31:18;125.03;;;36.30;;
78183;SDS011;67442;44.570;18.610;2024-03-25T02:33:45;116.38;;;35.40;;
78183;SDS011;67442;44.570;18.610;2024-03-25T02:36:12;117.63;;;37.50;;
78183;SDS011;67442;44.570;18.610;2024-03-25T02:38:40;118.70;;;32.80;;
78183;SDS011;67442;44.570;18.610;2024-03-25T02:41:08;90.13;;;28.27;;
78183;SDS011;67442;44.570;18.610;2024-03-25T02:43:35;92.50;;;29.85;;
78183;SDS011;67442;44.570;18.610;2024-03-25T02:46:03;130.68;;;37.28;;
78183;SDS011;67442;44.570;18.610;2024-03-25T02:48:30;116.80;;;31.00;;
78183;SDS011;67442;44.570;18.610;2024-03-25T02:50:58;138.00;;;35.08;;
78183;SDS011;67442;44.570;18.610;2024-03-25T02:53:25;141.90;;;34.17;;
78183;SDS011;67442;44.570;18.610;2024-03-25T02:55:53;165.80;;;38.30;;
78183;SDS011;67442;44.570;18.610;2024-03-25T02:58:20;131.60;;;34.72;;
78183;SDS011;67442;44.570;18.610;2024-03-25T03:00:48;197.07;;;38.15;;
78183;SDS011;67442;44.570;18.610;2024-03-25T03:03:15;171.57;;;36.60;;
78183;SDS011;67442;44.570;18.610;2024-03-25T03:05:43;248.40;;;60.90;;
78183;SDS011;67442;44.570;18.610;2024-03-25T03:08:10;299.58;;;67.68;;
78183;SDS011;67442;44.570;18.610;2024-03-25T03:10:38;276.30;;;65.20;;
78183;SDS011;67442;44.570;18.610;2024-03-25T03:13:05;315.00;;;68.68;;
78183;SDS011;67442;44.570;18.610;2024-03-25T03:15:33;285.17;;;61.92;;
78183;SDS011;67442;44.570;18.610;2024-03-25T03:18:01;383.60;;;83.72;;
78183;SDS011;67442;44.570;18.610;2024-03-25T03:20:28;223.05;;;41.03;;
78183;SDS011;67442;44.570;18.610;2024-03-25T03:22:56;192.45;;;38.10;;
78183;SDS011;67442;44.570;18.610;2024-03-25T03:25:23;199.15;;;39.00;;
78183;SDS011;67442;44.570;18.610;2024-03-25T03:27:51;198.15;;;38.42;;
78183;SDS011;67442;44.570;18.610;2024-03-25T03:30:18;169.95;;;36.33;;
78183;SDS011;67442;44.570;18.610;2024-03-25T03:32:46;180.95;;;38.10;;
78183;SDS011;67442;44.570;18.610;2024-03-25T03:35:13;153.55;;;36.97;;
78183;SDS011;67442;44.570;18.610;2024-03-25T03:37:41;187.27;;;39.50;;
78183;SDS011;67442;44.570;18.610;2024-03-25T03:40:09;157.82;;;37.63;;
78183;SDS011;67442;44.570;18.610;2024-03-25T03:42:37;182.75;;;38.28;;
78183;SDS011;67442;44.570;18.610;2024-03-25T03:45:04;174.20;;;39.22;;
78183;SDS011;67442;44.570;18.610;2024-03-25T03:47:32;190.73;;;38.85;;
78183;SDS011;67442;44.570;18.610;2024-03-25T03:50:00;215.90;;;41.45;;
78183;SDS011;67442;44.570;18.610;2024-03-25T03:52:27;257.88;;;56.22;;
78183;SDS011;67442;44.570;18.610;2024-03-25T03:54:55;273.33;;;55.35;;
78183;SDS011;67442;44.570;18.610;2024-03-25T03:57:22;337.00;;;70.03;;
78183;SDS011;67442;44.570;18.610;2024-03-25T03:59:51;255.18;;;51.00;;
78183;SDS011;67442;44.570;18.610;2024-03-25T04:02:19;247.40;;;43.65;;
78183;SDS011;67442;44.570;18.610;2024-03-25T04:04:47;259.05;;;48.53;;
78183;SDS011;67442;44.570;18.610;2024-03-25T04:07:14;265.08;;;49.72;;
78183;SDS011;67442;44.570;18.610;2024-03-25T04:09:42;299.77;;;59.00;;
78183;SDS011;67442;44.570;18.610;2024-03-25T04:12:09;293.02;;;62.65;;
78183;SDS011;67442;44.570;18.610;2024-03-25T04:14:36;215.50;;;44.90;;
78183;SDS011;67442;44.570;18.610;2024-03-25T04:17:04;191.15;;;38.17;;
78183;SDS011;67442;44.570;18.610;2024-03-25T04:19:32;185.35;;;37.45;;
78183;SDS011;67442;44.570;18.610;2024-03-25T04:21:59;185.43;;;37.67;;
78183;SDS011;67442;44.570;18.610;2024-03-25T04:24:28;172.15;;;35.88;;
78183;SDS011;67442;44.570;18.610;2024-03-25T04:26:56;174.95;;;37.60;;
78183;SDS011;67442;44.570;18.610;2024-03-25T04:29:25;222.10;;;41.03;;
78183;SDS011;67442;44.570;18.610;2024-03-25T04:31:52;176.52;;;37.20;;
78183;SDS011;67442;44.570;18.610;2024-03-25T04:34:19;154.55;;;32.85;;
78183;SDS011;67442;44.570;18.610;2024-03-25T04:36:49;162.68;;;34.50;;
78183;SDS011;67442;44.570;18.610;2024-03-25T04:39:16;172.35;;;36.63;;
78183;SDS011;67442;44.570;18.610;2024-03-25T04:41:44;170.85;;;35.45;;
78183;SDS011;67442;44.570;18.610;2024-03-25T04:44:12;161.48;;;36.30;;
78183;SDS011;67442;44.570;18.610;2024-03-25T04:46:40;162.32;;;35.13;;
78183;SDS011;67442;44.570;18.610;2024-03-25T04:49:07;167.52;;;38.33;;
78183;SDS011;67442;44.570;18.610;2024-03-25T04:51:34;165.15;;;35.10;;
78183;SDS011;67442;44.570;18.610;2024-03-25T04:54:02;169.18;;;37.05;;
78183;SDS011;67442;44.570;18.610;2024-03-25T04:56:29;203.07;;;41.90;;
78183;SDS011;67442;44.570;18.610;2024-03-25T04:58:57;211.15;;;47.78;;
78183;SDS011;67442;44.570;18.610;2024-03-25T05:01:27;157.40;;;35.13;;
78183;SDS011;67442;44.570;18.610;2024-03-25T05:03:55;160.27;;;34.50;;
78183;SDS011;67442;44.570;18.610;2024-03-25T05:06:22;178.27;;;42.75;;
78183;SDS011;67442;44.570;18.610;2024-03-25T05:08:50;177.90;;;35.45;;
78183;SDS011;67442;44.570;18.610;2024-03-25T05:11:17;189.05;;;39.97;;
78183;SDS011;67442;44.570;18.610;2024-03-25T05:13:44;183.52;;;36.75;;
78183;SDS011;67442;44.570;18.610;2024-03-25T05:16:12;149.73;;;35.72;;
78183;SDS011;67442;44.570;18.610;2024-03-25T05:18:39;172.13;;;36.83;;
78183;SDS011;67442;44.570;18.610;2024-03-25T05:21:07;134.70;;;33.13;;
78183;SDS011;67442;44.570;18.610;2024-03-25T05:23:34;120.38;;;29.95;;
78183;SDS011;67442;44.570;18.610;2024-03-25T05:26:02;126.47;;;29.35;;
78183;SDS011;67442;44.570;18.610;2024-03-25T05:28:29;119.68;;;27.63;;
78183;SDS011;67442;44.570;18.610;2024-03-25T05:30:56;136.63;;;30.25;;
78183;SDS011;67442;44.570;18.610;2024-03-25T05:33:24;214.85;;;49.20;;
78183;SDS011;67442;44.570;18.610;2024-03-25T05:35:51;112.25;;;27.42;;
78183;SDS011;67442;44.570;18.610;2024-03-25T05:38:18;162.30;;;39.42;;
78183;SDS011;67442;44.570;18.610;2024-03-25T05:40:46;138.32;;;30.58;;
78183;SDS011;67442;44.570;18.610;2024-03-25T05:43:13;192.30;;;49.47;;
78183;SDS011;67442;44.570;18.610;2024-03-25T05:45:41;176.63;;;47.63;;
78183;SDS011;67442;44.570;18.610;2024-03-25T05:48:08;119.18;;;30.80;;
78183;SDS011;67442;44.570;18.610;2024-03-25T05:50:36;122.47;;;30.60;;
78183;SDS011;67442;44.570;18.610;2024-03-25T05:53:04;103.07;;;27.38;;
78183;SDS011;67442;44.570;18.610;2024-03-25T05:55:31;210.48;;;48.15;;
78183;SDS011;67442;44.570;18.610;2024-03-25T05:57:58;236.63;;;56.67;;
78183;SDS011;67442;44.570;18.610;2024-03-25T06:00:26;179.32;;;43.80;;
78183;SDS011;67442;44.570;18.610;2024-03-25T06:02:54;268.60;;;65.22;;
78183;SDS011;67442;44.570;18.610;2024-03-25T06:05:21;130.73;;;31.20;;
78183;SDS011;67442;44.570;18.610;2024-03-25T06:07:48;111.97;;;28.42;;
78183;SDS011;67442;44.570;18.610;2024-03-25T06:10:15;107.28;;;28.20;;
78183;SDS011;67442;44.570;18.610;2024-03-25T06:12:42;103.22;;;27.70;;
78183;SDS011;67442;44.570;18.610;2024-03-25T06:15:10;105.68;;;27.17;;
78183;SDS011;67442;44.570;18.610;2024-03-25T06:17:37;115.47;;;30.27;;
78183;SDS011;67442;44.570;18.610;2024-03-25T06:20:04;110.05;;;26.73;;
78183;SDS011;67442;44.570;18.610;2024-03-25T06:22:33;101.43;;;28.05;;
78183;SDS011;67442;44.570;18.610;2024-03-25T06:25:01;119.25;;;31.30;;
78183;SDS011;67442;44.570;18.610;2024-03-25T06:27:28;112.82;;;29.42;;
78183;SDS011;67442;44.570;18.610;2024-03-25T06:29:57;110.90;;;33.08;;
78183;SDS011;67442;44.570;18.610;2024-03-25T06:32:44;109.63;;;30.58;;
78183;SDS011;67442;44.570;18.610;2024-03-25T06:37:56;908.65;;;305.45;;
78183;SDS011;67442;44.570;18.610;2024-03-25T06:40:23;342.23;;;103.53;;
78183;SDS011;67442;44.570;18.610;2024-03-25T06:42:51;688.40;;;250.07;;
78183;SDS011;67442;44.570;18.610;2024-03-25T06:45:18;133.82;;;40.42;;
78183;SDS011;67442;44.570;18.610;2024-03-25T06:47:46;372.98;;;120.18;;
78183;SDS011;67442;44.570;18.610;2024-03-25T06:50:13;143.10;;;37.58;;
78183;SDS011;67442;44.570;18.610;2024-03-25T06:52:40;93.18;;;26.77;;
78183;SDS011;67442;44.570;18.610;2024-03-25T06:55:08;136.00;;;40.28;;
78183;SDS011;67442;44.570;18.610;2024-03-25T06:57:35;93.00;;;28.70;;
78183;SDS011;67442;44.570;18.610;2024-03-25T07:00:03;87.68;;;28.45;;
78183;SDS011;67442;44.570;18.610;2024-03-25T07:02:35;104.07;;;29.42;;
78183;SDS011;67442;44.570;18.610;2024-03-25T07:05:02;91.07;;;25.58;;
78183;SDS011;67442;44.570;18.610;2024-03-25T07:07:30;217.57;;;68.07;;
78183;SDS011;67442;44.570;18.610;2024-03-25T07:09:58;130.68;;;45.53;;
78183;SDS011;67442;44.570;18.610;2024-03-25T07:12:25;91.38;;;30.00;;
78183;SDS011;67442;44.570;18.610;2024-03-25T07:14:53;136.70;;;55.60;;
78183;SDS011;67442;44.570;18.610;2024-03-25T07:17:20;101.93;;;33.17;;
78183;SDS011;67442;44.570;18.610;2024-03-25T07:19:48;99.45;;;31.27;;
78183;SDS011;67442;44.570;18.610;2024-03-25T07:22:16;79.10;;;26.88;;
78183;SDS011;67442;44.570;18.610;2024-03-25T07:24:43;88.57;;;28.95;;
78183;SDS011;67442;44.570;18.610;2024-03-25T07:27:10;98.00;;;33.78;;
78183;SDS011;67442;44.570;18.610;2024-03-25T07:29:38;79.30;;;25.73;;
78183;SDS011;67442;44.570;18.610;2024-03-25T07:32:05;68.25;;;23.83;;
78183;SDS011;67442;44.570;18.610;2024-03-25T07:34:34;78.85;;;24.67;;
78183;SDS011;67442;44.570;18.610;2024-03-25T07:37:01;82.88;;;35.17;;
78183;SDS011;67442;44.570;18.610;2024-03-25T07:39:29;67.75;;;21.88;;
78183;SDS011;67442;44.570;18.610;2024-03-25T07:41:56;56.83;;;21.02;;
78183;SDS011;67442;44.570;18.610;2024-03-25T07:44:24;70.85;;;23.38;;
78183;SDS011;67442;44.570;18.610;2024-03-25T07:46:52;70.20;;;25.50;;
78183;SDS011;67442;44.570;18.610;2024-03-25T07:49:21;122.45;;;36.10;;
78183;SDS011;67442;44.570;18.610;2024-03-25T07:51:49;68.47;;;25.33;;
78183;SDS011;67442;44.570;18.610;2024-03-25T07:54:16;91.30;;;31.92;;
78183;SDS011;67442;44.570;18.610;2024-03-25T07:56:45;55.65;;;22.58;;
78183;SDS011;67442;44.570;18.610;2024-03-25T07:59:13;61.33;;;22.90;;
78183;SDS011;67442;44.570;18.610;2024-03-25T08:01:40;54.72;;;21.77;;
78183;SDS011;67442;44.570;18.610;2024-03-25T08:04:08;58.42;;;23.08;;
78183;SDS011;67442;44.570;18.610;2024-03-25T08:06:36;72.28;;;31.70;;
78183;SDS011;67442;44.570;18.610;2024-03-25T08:09:04;63.75;;;24.73;;
78183;SDS011;67442;44.570;18.610;2024-03-25T08:11:31;61.20;;;22.45;;
78183;SDS011;67442;44.570;18.610;2024-03-25T08:13:58;62.80;;;22.17;;
78183;SDS011;67442;44.570;18.610;2024-03-25T08:16:26;58.05;;;22.98;;
78183;SDS011;67442;44.570;18.610;2024-03-25T08:18:53;61.03;;;22.33;;
78183;SDS011;67442;44.570;18.610;2024-03-25T08:21:21;61.10;;;22.73;;
78183;SDS011;67442;44.570;18.610;2024-03-25T08:23:49;57.03;;;22.10;;
78183;SDS011;67442;44.570;18.610;2024-03-25T08:26:17;53.22;;;20.88;;
78183;SDS011;67442;44.570;18.610;2024-03-25T08:28:44;38.67;;;16.38;;
78183;SDS011;67442;44.570;18.610;2024-03-25T08:31:11;52.03;;;22.08;;
78183;SDS011;67442;44.570;18.610;2024-03-25T08:33:39;86.30;;;34.55;;
78183;SDS011;67442;44.570;18.610;2024-03-25T08:36:06;44.33;;;16.55;;
78183;SDS011;67442;44.570;18.610;2024-03-25T08:38:33;44.03;;;15.93;;
78183;SDS011;67442;44.570;18.610;2024-03-25T08:41:00;70.30;;;27.83;;
78183;SDS011;67442;44.570;18.610;2024-03-25T08:43:28;38.92;;;16.23;;
78183;SDS011;67442;44.570;18.610;2024-03-25T08:45:56;40.97;;;17.05;;
78183;SDS011;67442;44.570;18.610;2024-03-25T08:48:24;32.78;;;12.55;;
78183;SDS011;67442;44.570;18.610;2024-03-25T08:50:51;30.92;;;12.10;;
78183;SDS011;67442;44.570;18.610;2024-03-25T08:53:18;39.33;;;14.85;;
78183;SDS011;67442;44.570;18.610;2024-03-25T08:55:47;39.83;;;14.13;;
78183;SDS011;67442;44.570;18.610;2024-03-25T08:58:14;27.38;;;11.27;;
78183;SDS011;67442;44.570;18.610;2024-03-25T09:00:42;29.20;;;11.23;;
78183;SDS011;67442;44.570;18.610;2024-03-25T09:03:10;30.45;;;12.05;;
78183;SDS011;67442;44.570;18.610;2024-03-25T09:05:37;28.52;;;11.35;;
78183;SDS011;67442;44.570;18.610;2024-03-25T09:08:05;29.20;;;10.82;;
78183;SDS011;67442;44.570;18.610;2024-03-25T09:10:37;28.45;;;11.57;;
78183;SDS011;67442;44.570;18.610;2024-03-25T09:13:22;29.45;;;12.07;;
78183;SDS011;67442;44.570;18.610;2024-03-25T09:15:49;32.58;;;12.15;;
78183;SDS011;67442;44.570;18.610;2024-03-25T09:18:17;26.35;;;11.40;;
78183;SDS011;67442;44.570;18.610;2024-03-25T09:20:44;29.45;;;11.20;;
78183;SDS011;67442;44.570;18.610;2024-03-25T09:23:12;60.20;;;34.92;;
78183;SDS011;67442;44.570;18.610;2024-03-25T09:25:39;27.73;;;11.20;;
78183;SDS011;67442;44.570;18.610;2024-03-25T09:28:06;31.50;;;11.88;;
78183;SDS011;67442;44.570;18.610;2024-03-25T09:30:33;29.70;;;11.50;;
78183;SDS011;67442;44.570;18.610;2024-03-25T09:33:01;27.60;;;10.80;;
78183;SDS011;67442;44.570;18.610;2024-03-25T09:35:28;35.85;;;14.07;;
78183;SDS011;67442;44.570;18.610;2024-03-25T09:37:55;30.52;;;12.27;;
78183;SDS011;67442;44.570;18.610;2024-03-25T09:40:23;27.45;;;11.20;;
78183;SDS011;67442;44.570;18.610;2024-03-25T09:42:57;23.13;;;8.50;;
78183;SDS011;67442;44.570;18.610;2024-03-25T09:45:27;19.23;;;7.43;;
78183;SDS011;67442;44.570;18.610;2024-03-25T09:47:55;26.55;;;9.98;;
78183;SDS011;67442;44.570;18.610;2024-03-25T09:50:22;21.23;;;7.05;;
78183;SDS011;67442;44.570;18.610;2024-03-25T09:52:50;16.45;;;6.25;;
78183;SDS011;67442;44.570;18.610;2024-03-25T09:55:17;12.27;;;4.53;;
78183;SDS011;67442;44.570;18.610;2024-03-25T09:57:44;16.58;;;5.88;;
78183;SDS011;67442;44.570;18.610;2024-03-25T10:00:11;11.82;;;4.60;;
78183;SDS011;67442;44.570;18.610;2024-03-25T10:02:39;9.65;;;4.00;;
78183;SDS011;67442;44.570;18.610;2024-03-25T10:05:07;10.95;;;4.53;;
78183;SDS011;67442;44.570;18.610;2024-03-25T10:07:35;15.50;;;6.00;;
78183;SDS011;67442;44.570;18.610;2024-03-25T10:10:05;16.63;;;6.22;;
78183;SDS011;67442;44.570;18.610;2024-03-25T10:12:35;16.67;;;6.13;;
78183;SDS011;67442;44.570;18.610;2024-03-25T10:15:05;20.85;;;7.35;;
78183;SDS011;67442;44.570;18.610;2024-03-25T10:17:49;17.13;;;6.50;;
78183;SDS011;67442;44.570;18.610;2024-03-25T10:20:18;15.63;;;6.45;;
78183;SDS011;67442;44.570;18.610;2024-03-25T10:22:45;15.35;;;6.32;;
78183;SDS011;67442;44.570;18.610;2024-03-25T10:25:20;15.93;;;6.55;;
78183;SDS011;67442;44.570;18.610;2024-03-25T10:27:54;12.00;;;4.65;;
78183;SDS011;67442;44.570;18.610;2024-03-25T10:30:24;19.58;;;6.93;;
78183;SDS011;67442;44.570;18.610;2024-03-25T10:33:00;23.42;;;8.75;;
78183;SDS011;67442;44.570;18.610;2024-03-25T10:35:27;26.15;;;8.27;;
78183;SDS011;67442;44.570;18.610;2024-03-25T10:37:59;29.75;;;10.52;;
78183;SDS011;67442;44.570;18.610;2024-03-25T10:40:29;14.80;;;5.55;;
78183;SDS011;67442;44.570;18.610;2024-03-25T10:43:00;17.85;;;6.80;;
78183;SDS011;67442;44.570;18.610;2024-03-25T10:45:29;19.75;;;7.45;;
78183;SDS011;67442;44.570;18.610;2024-03-25T10:48:03;19.42;;;6.68;;
78183;SDS011;67442;44.570;18.610;2024-03-25T10:50:46;19.95;;;7.13;;
78183;SDS011;67442;44.570;18.610;2024-03-25T10:53:14;26.45;;;9.25;;
78183;SDS011;67442;44.570;18.610;2024-03-25T10:55:42;41.53;;;13.85;;
78183;SDS011;67442;44.570;18.610;2024-03-25T10:58:13;30.15;;;8.70;;
78183;SDS011;67442;44.570;18.610;2024-03-25T11:00:42;46.60;;;14.23;;
78183;SDS011;67442;44.570;18.610;2024-03-25T11:03:09;33.90;;;10.30;;
78183;SDS011;67442;44.570;18.610;2024-03-25T11:05:36;34.75;;;9.63;;
78183;SDS011;67442;44.570;18.610;2024-03-25T11:08:13;35.60;;;10.40;;
78183;SDS011;67442;44.570;18.610;2024-03-25T11:10:41;24.58;;;8.57;;
78183;SDS011;67442;44.570;18.610;2024-03-25T11:13:12;27.92;;;8.55;;
78183;SDS011;67442;44.570;18.610;2024-03-25T11:15:42;32.30;;;8.65;;
78183;SDS011;67442;44.570;18.610;2024-03-25T11:20:39;32.60;;;9.00;;
78183;SDS011;67442;44.570;18.610;2024-03-25T11:25:38;25.42;;;7.15;;
78183;SDS011;67442;44.570;18.610;2024-03-25T11:28:06;25.10;;;6.30;;
78183;SDS011;67442;44.570;18.610;2024-03-25T11:30:34;44.20;;;9.98;;
78183;SDS011;67442;44.570;18.610;2024-03-25T11:33:02;33.50;;;9.32;;
78183;SDS011;67442;44.570;18.610;2024-03-25T11:35:38;33.47;;;8.98;;
78183;SDS011;67442;44.570;18.610;2024-03-25T11:38:05;154.43;;;47.92;;
78183;SDS011;67442;44.570;18.610;2024-03-25T11:40:33;29.95;;;7.97;;
78183;SDS011;67442;44.570;18.610;2024-03-25T11:43:02;32.13;;;8.30;;
78183;SDS011;67442;44.570;18.610;2024-03-25T11:45:31;34.08;;;8.93;;
78183;SDS011;67442;44.570;18.610;2024-03-25T11:47:59;101.40;;;30.33;;
78183;SDS011;67442;44.570;18.610;2024-03-25T11:50:26;111.35;;;33.15;;
78183;SDS011;67442;44.570;18.610;2024-03-25T11:52:54;30.08;;;8.05;;
78183;SDS011;67442;44.570;18.610;2024-03-25T11:55:21;25.90;;;7.85;;
78183;SDS011;67442;44.570;18.610;2024-03-25T11:57:54;46.67;;;14.38;;
78183;SDS011;67442;44.570;18.610;2024-03-25T12:00:22;22.92;;;6.82;;
78183;SDS011;67442;44.570;18.610;2024-03-25T12:02:49;23.80;;;6.10;;
78183;SDS011;67442;44.570;18.610;2024-03-25T12:05:18;108.97;;;46.78;;
78183;SDS011;67442;44.570;18.610;2024-03-25T12:07:45;37.90;;;16.02;;
78183;SDS011;67442;44.570;18.610;2024-03-25T12:10:12;22.52;;;8.50;;
78183;SDS011;67442;44.570;18.610;2024-03-25T12:12:58;50.90;;;13.43;;
78183;SDS011;67442;44.570;18.610;2024-03-25T12:15:25;21.40;;;6.25;;
78183;SDS011;67442;44.570;18.610;2024-03-25T12:17:52;34.90;;;9.85;;
78183;SDS011;67442;44.570;18.610;2024-03-25T12:20:19;17.20;;;4.97;;
78183;SDS011;67442;44.570;18.610;2024-03-25T12:22:48;77.22;;;30.83;;
78183;SDS011;67442;44.570;18.610;2024-03-25T12:25:15;43.05;;;16.83;;
78183;SDS011;67442;44.570;18.610;2024-03-25T12:27:45;19.10;;;6.57;;
78183;SDS011;67442;44.570;18.610;2024-03-25T12:30:14;15.27;;;4.95;;
78183;SDS011;67442;44.570;18.610;2024-03-25T12:32:43;16.45;;;5.22;;
78183;SDS011;67442;44.570;18.610;2024-03-25T12:35:13;15.35;;;5.20;;
78183;SDS011;67442;44.570;18.610;2024-03-25T12:37:44;12.20;;;3.67;;
78183;SDS011;67442;44.570;18.610;2024-03-25T12:40:12;12.50;;;3.08;;
78183;SDS011;67442;44.570;18.610;2024-03-25T12:42:40;31.05;;;9.35;;
78183;SDS011;67442;44.570;18.610;2024-03-25T12:45:07;34.65;;;11.38;;
78183;SDS011;67442;44.570;18.610;2024-03-25T12:47:35;7.85;;;2.63;;
78183;SDS011;67442;44.570;18.610;2024-03-25T12:50:02;8.93;;;2.65;;
78183;SDS011;67442;44.570;18.610;2024-03-25T12:52:31;9.02;;;2.80;;
78183;SDS011;67442;44.570;18.610;2024-03-25T12:54:59;5.38;;;1.75;;
78183;SDS011;67442;44.570;18.610;2024-03-25T12:57:26;23.40;;;3.00;;
78183;SDS011;67442;44.570;18.610;2024-03-25T12:59:54;4.80;;;2.00;;
78183;SDS011;67442;44.570;18.610;2024-03-25T13:02:21;4.78;;;1.70;;
78183;SDS011;67442;44.570;18.610;2024-03-25T13:04:48;6.95;;;1.88;;
78183;SDS011;67442;44.570;18.610;2024-03-25T13:07:15;4.20;;;1.88;;
78183;SDS011;67442;44.570;18.610;2024-03-25T13:09:43;3.95;;;1.70;;
78183;SDS011;67442;44.570;18.610;2024-03-25T13:12:10;6.30;;;1.98;;
78183;SDS011;67442;44.570;18.610;2024-03-25T13:14:38;2.95;;;1.75;;
78183;SDS011;67442;44.570;18.610;2024-03-25T13:17:05;3.63;;;1.13;;
78183;SDS011;67442;44.570;18.610;2024-03-25T13:19:33;1.92;;;1.17;;
78183;SDS011;67442;44.570;18.610;2024-03-25T13:22:00;2.33;;;1.23;;
78183;SDS011;67442;44.570;18.610;2024-03-25T13:24:27;2.20;;;1.23;;
78183;SDS011;67442;44.570;18.610;2024-03-25T13:26:54;3.50;;;1.50;;
78183;SDS011;67442;44.570;18.610;2024-03-25T13:29:22;6.00;;;2.30;;
78183;SDS011;67442;44.570;18.610;2024-03-25T13:31:49;4.00;;;1.70;;
78183;SDS011;67442;44.570;18.610;2024-03-25T13:34:17;3.47;;;1.70;;
78183;SDS011;67442;44.570;18.610;2024-03-25T13:36:44;4.78;;;1.95;;
78183;SDS011;67442;44.570;18.610;2024-03-25T13:39:12;4.30;;;2.10;;
78183;SDS011;67442;44.570;18.610;2024-03-25T13:41:39;17.92;;;9.82;;
78183;SDS011;67442;44.570;18.610;2024-03-25T13:44:07;7.15;;;2.88;;
78183;SDS011;67442;44.570;18.610;2024-03-25T13:46:34;7.72;;;2.92;;
78183;SDS011;67442;44.570;18.610;2024-03-25T13:49:01;8.07;;;3.10;;
78183;SDS011;67442;44.570;18.610;2024-03-25T13:51:29;9.02;;;3.25;;
78183;SDS011;67442;44.570;18.610;2024-03-25T13:53:56;7.65;;;2.45;;
78183;SDS011;67442;44.570;18.610;2024-03-25T13:56:24;6.80;;;2.53;;
78183;SDS011;67442;44.570;18.610;2024-03-25T13:58:51;14.55;;;4.88;;
78183;SDS011;67442;44.570;18.610;2024-03-25T14:01:19;12.50;;;3.22;;
78183;SDS011;67442;44.570;18.610;2024-03-25T14:03:46;5.80;;;2.70;;
78183;SDS011;67442;44.570;18.610;2024-03-25T14:06:14;5.97;;;3.00;;
78183;SDS011;67442;44.570;18.610;2024-03-25T14:08:41;6.47;;;2.20;;
78183;SDS011;67442;44.570;18.610;2024-03-25T14:11:09;4.20;;;2.22;;
78183;SDS011;67442;44.570;18.610;2024-03-25T14:13:36;4.82;;;2.33;;
78183;SDS011;67442;44.570;18.610;2024-03-25T14:16:04;10.15;;;2.13;;
78183;SDS011;67442;44.570;18.610;2024-03-25T14:18:31;6.22;;;2.10;;